sensor_id;sensor_type;location;lat;lon;timestamp;P1;durP1;ratioP1;P2;durP2;ratioP2
60076;SDS011;45950;45.208;20.374;2022-11-13T10:18:50;26.92;;;18.17;;
60076;SDS011;45950;45.208;20.374;2022-11-13T10:21:20;25.35;;;17.30;;
60076;SDS011;45950;45.208;20.374;2022-11-13T10:23:53;30.90;;;13.15;;
60076;SDS011;45950;45.208;20.374;2022-11-13T10:26:21;17.48;;;13.23;;
60076;SDS011;45950;45.208;20.374;2022-11-13T10:28:48;16.02;;;12.57;;
60076;SDS011;45950;45.208;20.374;2022-11-13T10:34:05;15.07;;;9.10;;
60076;SDS011;45950;45.208;20.374;2022-11-13T10:36:34;13.20;;;9.23;;
60076;SDS011;45950;45.208;20.374;2022-11-13T10:39:02;19.15;;;11.48;;
60076;SDS011;45950;45.208;20.374;2022-11-13T10:41:30;19.75;;;11.02;;
60076;SDS011;45950;45.208;20.374;2022-11-13T10:43:57;15.10;;;10.68;;
60076;SDS011;45950;45.208;20.374;2022-11-13T10:46:24;13.10;;;8.95;;
60076;SDS011;45950;45.208;20.374;2022-11-13T10:48:51;13.40;;;8.85;;
60076;SDS011;45950;45.208;20.374;2022-11-13T10:51:20;14.40;;;9.35;;
60076;SDS011;45950;45.208;20.374;2022-11-13T10:53:47;13.43;;;9.73;;
60076;SDS011;45950;45.208;20.374;2022-11-13T10:56:20;15.32;;;11.10;;
60076;SDS011;45950;45.208;20.374;2022-11-13T10:58:58;14.55;;;10.88;;
60076;SDS011;45950;45.208;20.374;2022-11-13T11:01:25;12.77;;;9.98;;
60076;SDS011;45950;45.208;20.374;2022-11-13T11:03:51;14.95;;;10.07;;
60076;SDS011;45950;45.208;20.374;2022-11-13T11:06:23;15.32;;;10.07;;
60076;SDS011;45950;45.208;20.374;2022-11-13T11:09:03;17.00;;;10.95;;
60076;SDS011;45950;45.208;20.374;2022-11-13T11:11:30;21.35;;;12.48;;
60076;SDS011;45950;45.208;20.374;2022-11-13T11:14:15;21.67;;;12.20;;
60076;SDS011;45950;45.208;20.374;2022-11-13T11:16:51;17.80;;;10.32;;
60076;SDS011;45950;45.208;20.374;2022-11-13T11:19:19;16.35;;;10.00;;
60076;SDS011;45950;45.208;20.374;2022-11-13T11:21:48;18.33;;;11.93;;
60076;SDS011;45950;45.208;20.374;2022-11-13T11:24:17;19.08;;;12.02;;
60076;SDS011;45950;45.208;20.374;2022-11-13T11:26:46;21.00;;;12.23;;
60076;SDS011;45950;45.208;20.374;2022-11-13T11:29:16;18.20;;;10.38;;
60076;SDS011;45950;45.208;20.374;2022-11-13T11:31:46;11.68;;;8.55;;
60076;SDS011;45950;45.208;20.374;2022-11-13T11:34:16;14.63;;;10.82;;
60076;SDS011;45950;45.208;20.374;2022-11-13T11:36:46;15.13;;;9.60;;
60076;SDS011;45950;45.208;20.374;2022-11-13T11:39:20;14.60;;;9.85;;
60076;SDS011;45950;45.208;20.374;2022-11-13T11:41:52;15.40;;;10.40;;
60076;SDS011;45950;45.208;20.374;2022-11-13T11:44:21;15.45;;;10.05;;
60076;SDS011;45950;45.208;20.374;2022-11-13T11:46:50;13.10;;;9.07;;
60076;SDS011;45950;45.208;20.374;2022-11-13T11:49:16;11.30;;;8.52;;
60076;SDS011;45950;45.208;20.374;2022-11-13T11:51:47;17.33;;;11.07;;
60076;SDS011;45950;45.208;20.374;2022-11-13T11:54:19;24.58;;;14.20;;
60076;SDS011;45950;45.208;20.374;2022-11-13T11:56:50;15.55;;;9.68;;
60076;SDS011;45950;45.208;20.374;2022-11-13T11:59:21;11.55;;;8.43;;
60076;SDS011;45950;45.208;20.374;2022-11-13T12:02:11;15.23;;;9.45;;
60076;SDS011;45950;45.208;20.374;2022-11-13T12:04:45;13.25;;;8.05;;
60076;SDS011;45950;45.208;20.374;2022-11-13T12:07:17;19.08;;;13.73;;
60076;SDS011;45950;45.208;20.374;2022-11-13T12:10:00;45.08;;;26.48;;
60076;SDS011;45950;45.208;20.374;2022-11-13T12:12:31;33.15;;;20.55;;
60076;SDS011;45950;45.208;20.374;2022-11-13T12:15:02;63.97;;;33.95;;
60076;SDS011;45950;45.208;20.374;2022-11-13T12:20:33;44.25;;;26.27;;
60076;SDS011;45950;45.208;20.374;2022-11-13T12:23:03;21.90;;;14.77;;
60076;SDS011;45950;45.208;20.374;2022-11-13T12:25:37;16.00;;;10.15;;
60076;SDS011;45950;45.208;20.374;2022-11-13T12:28:10;11.30;;;7.07;;
60076;SDS011;45950;45.208;20.374;2022-11-13T12:30:41;9.98;;;7.35;;
60076;SDS011;45950;45.208;20.374;2022-11-13T12:33:13;12.20;;;7.38;;
60076;SDS011;45950;45.208;20.374;2022-11-13T12:35:43;11.60;;;8.05;;
60076;SDS011;45950;45.208;20.374;2022-11-13T12:38:12;10.02;;;6.93;;
60076;SDS011;45950;45.208;20.374;2022-11-13T12:40:44;12.48;;;7.90;;
60076;SDS011;45950;45.208;20.374;2022-11-13T12:43:25;7.60;;;6.03;;
60076;SDS011;45950;45.208;20.374;2022-11-13T12:45:53;9.10;;;6.50;;
60076;SDS011;45950;45.208;20.374;2022-11-13T12:48:21;8.85;;;5.82;;
60076;SDS011;45950;45.208;20.374;2022-11-13T12:50:55;9.57;;;6.95;;
60076;SDS011;45950;45.208;20.374;2022-11-13T12:56:07;11.25;;;7.70;;
60076;SDS011;45950;45.208;20.374;2022-11-13T12:58:38;8.02;;;6.13;;
60076;SDS011;45950;45.208;20.374;2022-11-13T13:01:05;10.38;;;7.43;;
60076;SDS011;45950;45.208;20.374;2022-11-13T13:03:50;10.73;;;7.25;;
60076;SDS011;45950;45.208;20.374;2022-11-13T13:06:27;11.52;;;7.60;;
60076;SDS011;45950;45.208;20.374;2022-11-13T13:09:02;10.80;;;7.60;;
60076;SDS011;45950;45.208;20.374;2022-11-13T13:11:35;9.23;;;6.30;;
60076;SDS011;45950;45.208;20.374;2022-11-13T13:16:49;10.63;;;7.80;;
60076;SDS011;45950;45.208;20.374;2022-11-13T13:19:22;11.10;;;7.22;;
60076;SDS011;45950;45.208;20.374;2022-11-13T13:24:30;13.00;;;7.97;;
60076;SDS011;45950;45.208;20.374;2022-11-13T13:26:58;12.35;;;7.55;;
60076;SDS011;45950;45.208;20.374;2022-11-13T13:29:26;11.55;;;7.65;;
60076;SDS011;45950;45.208;20.374;2022-11-13T13:31:54;11.00;;;7.43;;
60076;SDS011;45950;45.208;20.374;2022-11-13T13:34:26;11.70;;;7.72;;
60076;SDS011;45950;45.208;20.374;2022-11-13T13:36:56;14.13;;;8.80;;
60076;SDS011;45950;45.208;20.374;2022-11-13T13:39:28;19.33;;;12.43;;
60076;SDS011;45950;45.208;20.374;2022-11-13T13:42:05;19.55;;;11.65;;
60076;SDS011;45950;45.208;20.374;2022-11-13T13:44:46;66.78;;;35.35;;
60076;SDS011;45950;45.208;20.374;2022-11-13T13:47:19;22.85;;;12.68;;
60076;SDS011;45950;45.208;20.374;2022-11-13T13:49:47;22.65;;;13.25;;
60076;SDS011;45950;45.208;20.374;2022-11-13T13:52:22;31.48;;;16.35;;
60076;SDS011;45950;45.208;20.374;2022-11-13T13:54:51;26.60;;;13.65;;
60076;SDS011;45950;45.208;20.374;2022-11-13T13:57:20;25.30;;;13.10;;
60076;SDS011;45950;45.208;20.374;2022-11-13T13:59:47;27.23;;;14.68;;
60076;SDS011;45950;45.208;20.374;2022-11-13T14:02:16;30.40;;;15.63;;
60076;SDS011;45950;45.208;20.374;2022-11-13T14:04:43;24.38;;;15.40;;
60076;SDS011;45950;45.208;20.374;2022-11-13T14:07:18;30.50;;;16.17;;
60076;SDS011;45950;45.208;20.374;2022-11-13T14:12:16;21.70;;;13.50;;
60076;SDS011;45950;45.208;20.374;2022-11-13T14:14:44;14.98;;;10.32;;
60076;SDS011;45950;45.208;20.374;2022-11-13T14:17:11;13.85;;;10.70;;
60076;SDS011;45950;45.208;20.374;2022-11-13T14:19:38;14.45;;;10.38;;
60076;SDS011;45950;45.208;20.374;2022-11-13T14:22:05;12.77;;;9.50;;
60076;SDS011;45950;45.208;20.374;2022-11-13T14:24:37;11.63;;;8.18;;
60076;SDS011;45950;45.208;20.374;2022-11-13T14:27:06;11.38;;;8.25;;
60076;SDS011;45950;45.208;20.374;2022-11-13T14:29:39;11.30;;;7.95;;
60076;SDS011;45950;45.208;20.374;2022-11-13T14:32:11;9.85;;;7.18;;
60076;SDS011;45950;45.208;20.374;2022-11-13T14:34:41;10.63;;;8.13;;
60076;SDS011;45950;45.208;20.374;2022-11-13T14:39:54;12.40;;;8.00;;
60076;SDS011;45950;45.208;20.374;2022-11-13T14:42:22;16.83;;;9.73;;
60076;SDS011;45950;45.208;20.374;2022-11-13T14:47:59;41.85;;;19.98;;
60076;SDS011;45950;45.208;20.374;2022-11-13T14:50:27;44.50;;;21.05;;
60076;SDS011;45950;45.208;20.374;2022-11-13T14:53:08;41.42;;;23.63;;
60076;SDS011;45950;45.208;20.374;2022-11-13T14:55:36;40.40;;;22.52;;
60076;SDS011;45950;45.208;20.374;2022-11-13T14:58:03;34.40;;;20.25;;
60076;SDS011;45950;45.208;20.374;2022-11-13T15:00:30;22.52;;;13.00;;
60076;SDS011;45950;45.208;20.374;2022-11-13T15:02:59;20.45;;;12.60;;
60076;SDS011;45950;45.208;20.374;2022-11-13T15:05:26;20.75;;;12.48;;
60076;SDS011;45950;45.208;20.374;2022-11-13T15:07:53;28.35;;;17.35;;
60076;SDS011;45950;45.208;20.374;2022-11-13T15:10:21;32.63;;;18.33;;
60076;SDS011;45950;45.208;20.374;2022-11-13T15:12:48;27.88;;;17.90;;
60076;SDS011;45950;45.208;20.374;2022-11-13T15:15:15;39.90;;;23.60;;
60076;SDS011;45950;45.208;20.374;2022-11-13T15:17:43;44.95;;;25.75;;
60076;SDS011;45950;45.208;20.374;2022-11-13T15:20:13;51.85;;;28.27;;
60076;SDS011;45950;45.208;20.374;2022-11-13T15:25:43;63.83;;;34.17;;
60076;SDS011;45950;45.208;20.374;2022-11-13T15:28:10;114.97;;;53.55;;
60076;SDS011;45950;45.208;20.374;2022-11-13T15:33:30;260.90;;;120.28;;
60076;SDS011;45950;45.208;20.374;2022-11-13T15:35:58;247.27;;;113.05;;
60076;SDS011;45950;45.208;20.374;2022-11-13T15:38:26;255.38;;;112.97;;
60076;SDS011;45950;45.208;20.374;2022-11-13T15:40:53;193.73;;;87.85;;
60076;SDS011;45950;45.208;20.374;2022-11-13T15:43:19;156.38;;;70.97;;
60076;SDS011;45950;45.208;20.374;2022-11-13T15:45:46;123.50;;;55.58;;
60076;SDS011;45950;45.208;20.374;2022-11-13T15:48:13;102.38;;;48.85;;
60076;SDS011;45950;45.208;20.374;2022-11-13T15:50:39;80.78;;;40.42;;
60076;SDS011;45950;45.208;20.374;2022-11-13T15:53:08;60.35;;;29.00;;
60076;SDS011;45950;45.208;20.374;2022-11-13T15:55:36;50.42;;;24.90;;
60076;SDS011;45950;45.208;20.374;2022-11-13T15:58:04;40.88;;;21.30;;
60076;SDS011;45950;45.208;20.374;2022-11-13T16:00:30;27.42;;;17.13;;
60076;SDS011;45950;45.208;20.374;2022-11-13T16:02:57;24.02;;;13.93;;
60076;SDS011;45950;45.208;20.374;2022-11-13T16:05:25;23.90;;;15.55;;
60076;SDS011;45950;45.208;20.374;2022-11-13T16:10:57;36.92;;;22.73;;
60076;SDS011;45950;45.208;20.374;2022-11-13T16:13:23;36.50;;;23.88;;
60076;SDS011;45950;45.208;20.374;2022-11-13T16:15:50;44.95;;;26.05;;
60076;SDS011;45950;45.208;20.374;2022-11-13T16:18:18;65.85;;;32.60;;
60076;SDS011;45950;45.208;20.374;2022-11-13T16:20:48;53.58;;;28.70;;
60076;SDS011;45950;45.208;20.374;2022-11-13T16:23:19;43.33;;;25.85;;
60076;SDS011;45950;45.208;20.374;2022-11-13T16:25:46;46.70;;;28.55;;
60076;SDS011;45950;45.208;20.374;2022-11-13T16:28:15;39.47;;;25.48;;
60076;SDS011;45950;45.208;20.374;2022-11-13T16:30:49;36.83;;;23.58;;
60076;SDS011;45950;45.208;20.374;2022-11-13T16:33:15;36.15;;;23.42;;
60076;SDS011;45950;45.208;20.374;2022-11-13T16:35:42;37.67;;;24.77;;
60076;SDS011;45950;45.208;20.374;2022-11-13T16:38:10;37.63;;;22.92;;
60076;SDS011;45950;45.208;20.374;2022-11-13T16:40:36;35.85;;;22.52;;
60076;SDS011;45950;45.208;20.374;2022-11-13T16:43:05;30.00;;;19.48;;
60076;SDS011;45950;45.208;20.374;2022-11-13T16:45:33;27.58;;;18.70;;
60076;SDS011;45950;45.208;20.374;2022-11-13T16:48:01;32.70;;;20.95;;
60076;SDS011;45950;45.208;20.374;2022-11-13T16:50:28;31.55;;;21.85;;
60076;SDS011;45950;45.208;20.374;2022-11-13T16:52:55;29.38;;;19.08;;
60076;SDS011;45950;45.208;20.374;2022-11-13T16:55:21;30.42;;;19.30;;
60076;SDS011;45950;45.208;20.374;2022-11-13T16:57:58;32.90;;;17.95;;
60076;SDS011;45950;45.208;20.374;2022-11-13T17:00:25;32.28;;;19.33;;
60076;SDS011;45950;45.208;20.374;2022-11-13T17:02:53;30.10;;;18.67;;
60076;SDS011;45950;45.208;20.374;2022-11-13T17:05:30;27.75;;;17.25;;
60076;SDS011;45950;45.208;20.374;2022-11-13T17:07:57;24.15;;;16.35;;
60076;SDS011;45950;45.208;20.374;2022-11-13T17:13:42;32.78;;;21.23;;
60076;SDS011;45950;45.208;20.374;2022-11-13T17:16:10;29.02;;;18.20;;
60076;SDS011;45950;45.208;20.374;2022-11-13T17:18:38;33.58;;;21.52;;
60076;SDS011;45950;45.208;20.374;2022-11-13T17:21:04;31.33;;;20.13;;
60076;SDS011;45950;45.208;20.374;2022-11-13T17:23:31;34.30;;;23.48;;
60076;SDS011;45950;45.208;20.374;2022-11-13T17:25:59;32.28;;;21.95;;
60076;SDS011;45950;45.208;20.374;2022-11-13T17:28:25;38.63;;;25.30;;
60076;SDS011;45950;45.208;20.374;2022-11-13T17:30:52;30.38;;;20.33;;
60076;SDS011;45950;45.208;20.374;2022-11-13T17:33:18;29.63;;;20.42;;
60076;SDS011;45950;45.208;20.374;2022-11-13T17:35:55;31.20;;;20.25;;
60076;SDS011;45950;45.208;20.374;2022-11-13T17:38:22;30.17;;;17.83;;
60076;SDS011;45950;45.208;20.374;2022-11-13T17:40:48;30.10;;;17.85;;
60076;SDS011;45950;45.208;20.374;2022-11-13T17:43:15;27.45;;;17.67;;
60076;SDS011;45950;45.208;20.374;2022-11-13T17:45:41;29.42;;;18.98;;
60076;SDS011;45950;45.208;20.374;2022-11-13T17:48:08;23.60;;;17.38;;
60076;SDS011;45950;45.208;20.374;2022-11-13T17:50:35;28.27;;;17.23;;
60076;SDS011;45950;45.208;20.374;2022-11-13T17:53:03;24.80;;;16.52;;
60076;SDS011;45950;45.208;20.374;2022-11-13T17:55:29;28.95;;;17.65;;
60076;SDS011;45950;45.208;20.374;2022-11-13T17:57:57;25.50;;;17.02;;
60076;SDS011;45950;45.208;20.374;2022-11-13T18:00:24;26.38;;;18.52;;
60076;SDS011;45950;45.208;20.374;2022-11-13T18:02:51;33.55;;;23.27;;
60076;SDS011;45950;45.208;20.374;2022-11-13T18:05:17;35.20;;;22.88;;
60076;SDS011;45950;45.208;20.374;2022-11-13T18:07:47;32.28;;;21.50;;
60076;SDS011;45950;45.208;20.374;2022-11-13T18:10:15;31.90;;;21.17;;
60076;SDS011;45950;45.208;20.374;2022-11-13T18:12:42;29.88;;;20.35;;
60076;SDS011;45950;45.208;20.374;2022-11-13T18:18:11;36.90;;;23.08;;
60076;SDS011;45950;45.208;20.374;2022-11-13T18:20:38;35.80;;;22.63;;
60076;SDS011;45950;45.208;20.374;2022-11-13T18:23:05;30.50;;;20.75;;
60076;SDS011;45950;45.208;20.374;2022-11-13T18:25:36;31.42;;;21.13;;
60076;SDS011;45950;45.208;20.374;2022-11-13T18:28:03;32.60;;;20.65;;
60076;SDS011;45950;45.208;20.374;2022-11-13T18:30:29;31.33;;;20.38;;
60076;SDS011;45950;45.208;20.374;2022-11-13T18:32:56;37.65;;;22.50;;
60076;SDS011;45950;45.208;20.374;2022-11-13T18:35:40;36.50;;;20.90;;
60076;SDS011;45950;45.208;20.374;2022-11-13T18:38:07;38.45;;;21.67;;
60076;SDS011;45950;45.208;20.374;2022-11-13T18:40:35;38.03;;;20.20;;
60076;SDS011;45950;45.208;20.374;2022-11-13T18:43:13;38.08;;;21.58;;
60076;SDS011;45950;45.208;20.374;2022-11-13T18:45:40;32.35;;;20.73;;
60076;SDS011;45950;45.208;20.374;2022-11-13T18:48:06;36.00;;;22.17;;
60076;SDS011;45950;45.208;20.374;2022-11-13T18:53:35;41.97;;;19.70;;
60076;SDS011;45950;45.208;20.374;2022-11-13T18:56:04;30.92;;;19.02;;
60076;SDS011;45950;45.208;20.374;2022-11-13T18:58:31;30.67;;;19.88;;
60076;SDS011;45950;45.208;20.374;2022-11-13T19:01:06;34.05;;;20.77;;
60076;SDS011;45950;45.208;20.374;2022-11-13T19:03:33;35.72;;;20.85;;
60076;SDS011;45950;45.208;20.374;2022-11-13T19:05:59;36.38;;;20.77;;
60076;SDS011;45950;45.208;20.374;2022-11-13T19:08:26;32.80;;;18.83;;
60076;SDS011;45950;45.208;20.374;2022-11-13T19:13:41;35.58;;;20.60;;
60076;SDS011;45950;45.208;20.374;2022-11-13T19:16:10;37.63;;;22.52;;
60076;SDS011;45950;45.208;20.374;2022-11-13T19:18:37;42.40;;;25.35;;
60076;SDS011;45950;45.208;20.374;2022-11-13T19:21:04;42.80;;;25.58;;
60076;SDS011;45950;45.208;20.374;2022-11-13T19:23:31;44.50;;;26.80;;
60076;SDS011;45950;45.208;20.374;2022-11-13T19:25:58;41.05;;;25.17;;
60076;SDS011;45950;45.208;20.374;2022-11-13T19:28:24;42.22;;;25.77;;
60076;SDS011;45950;45.208;20.374;2022-11-13T19:30:53;37.97;;;23.15;;
60076;SDS011;45950;45.208;20.374;2022-11-13T19:36:22;41.10;;;25.52;;
60076;SDS011;45950;45.208;20.374;2022-11-13T19:38:50;41.47;;;24.20;;
60076;SDS011;45950;45.208;20.374;2022-11-13T19:41:17;39.65;;;25.30;;
60076;SDS011;45950;45.208;20.374;2022-11-13T19:43:43;39.20;;;24.23;;
60076;SDS011;45950;45.208;20.374;2022-11-13T19:46:12;38.85;;;24.27;;
60076;SDS011;45950;45.208;20.374;2022-11-13T19:48:39;36.42;;;22.23;;
60076;SDS011;45950;45.208;20.374;2022-11-13T19:51:06;36.45;;;22.40;;
60076;SDS011;45950;45.208;20.374;2022-11-13T19:53:34;33.08;;;21.30;;
60076;SDS011;45950;45.208;20.374;2022-11-13T19:56:00;34.35;;;21.92;;
60076;SDS011;45950;45.208;20.374;2022-11-13T19:58:27;35.33;;;22.60;;
60076;SDS011;45950;45.208;20.374;2022-11-13T20:00:54;35.40;;;21.85;;
60076;SDS011;45950;45.208;20.374;2022-11-13T20:03:22;34.55;;;20.48;;
60076;SDS011;45950;45.208;20.374;2022-11-13T20:05:50;32.63;;;20.05;;
60076;SDS011;45950;45.208;20.374;2022-11-13T20:08:17;31.25;;;18.08;;
60076;SDS011;45950;45.208;20.374;2022-11-13T20:10:44;31.38;;;19.23;;
60076;SDS011;45950;45.208;20.374;2022-11-13T20:13:10;29.67;;;18.55;;
60076;SDS011;45950;45.208;20.374;2022-11-13T20:15:37;30.90;;;20.02;;
60076;SDS011;45950;45.208;20.374;2022-11-13T20:18:04;31.55;;;19.67;;
60076;SDS011;45950;45.208;20.374;2022-11-13T20:20:32;30.88;;;18.60;;
60076;SDS011;45950;45.208;20.374;2022-11-13T20:22:58;28.55;;;18.23;;
60076;SDS011;45950;45.208;20.374;2022-11-13T20:25:25;33.78;;;19.98;;
60076;SDS011;45950;45.208;20.374;2022-11-13T20:27:53;29.17;;;18.20;;
60076;SDS011;45950;45.208;20.374;2022-11-13T20:30:21;32.42;;;19.00;;
60076;SDS011;45950;45.208;20.374;2022-11-13T20:32:47;31.45;;;19.60;;
60076;SDS011;45950;45.208;20.374;2022-11-13T20:35:14;33.53;;;21.00;;
60076;SDS011;45950;45.208;20.374;2022-11-13T20:37:42;31.23;;;19.13;;
60076;SDS011;45950;45.208;20.374;2022-11-13T20:40:09;30.20;;;20.42;;
60076;SDS011;45950;45.208;20.374;2022-11-13T20:42:36;33.40;;;20.48;;
60076;SDS011;45950;45.208;20.374;2022-11-13T20:45:03;28.77;;;18.33;;
60076;SDS011;45950;45.208;20.374;2022-11-13T20:47:32;28.17;;;18.23;;
60076;SDS011;45950;45.208;20.374;2022-11-13T20:49:58;30.02;;;18.77;;
60076;SDS011;45950;45.208;20.374;2022-11-13T20:52:25;31.35;;;19.92;;
60076;SDS011;45950;45.208;20.374;2022-11-13T20:54:58;32.40;;;20.15;;
60076;SDS011;45950;45.208;20.374;2022-11-13T20:57:24;34.58;;;21.17;;
60076;SDS011;45950;45.208;20.374;2022-11-13T20:59:51;33.35;;;20.73;;
60076;SDS011;45950;45.208;20.374;2022-11-13T21:02:18;36.90;;;23.20;;
60076;SDS011;45950;45.208;20.374;2022-11-13T21:04:44;40.60;;;24.17;;
60076;SDS011;45950;45.208;20.374;2022-11-13T21:07:11;39.47;;;24.42;;
60076;SDS011;45950;45.208;20.374;2022-11-13T21:09:38;39.47;;;24.65;;
60076;SDS011;45950;45.208;20.374;2022-11-13T21:12:06;42.30;;;24.45;;
60076;SDS011;45950;45.208;20.374;2022-11-13T21:14:33;38.88;;;23.27;;
60076;SDS011;45950;45.208;20.374;2022-11-13T21:17:09;41.97;;;24.80;;
60076;SDS011;45950;45.208;20.374;2022-11-13T21:19:35;37.85;;;22.70;;
60076;SDS011;45950;45.208;20.374;2022-11-13T21:22:02;40.05;;;23.45;;
60076;SDS011;45950;45.208;20.374;2022-11-13T21:24:28;41.53;;;24.13;;
60076;SDS011;45950;45.208;20.374;2022-11-13T21:26:56;50.70;;;26.55;;
60076;SDS011;45950;45.208;20.374;2022-11-13T21:29:24;44.17;;;25.55;;
60076;SDS011;45950;45.208;20.374;2022-11-13T21:31:50;43.65;;;26.98;;
60076;SDS011;45950;45.208;20.374;2022-11-13T21:34:17;45.25;;;24.70;;
60076;SDS011;45950;45.208;20.374;2022-11-13T21:36:43;35.95;;;22.60;;
60076;SDS011;45950;45.208;20.374;2022-11-13T21:39:10;36.70;;;21.63;;
60076;SDS011;45950;45.208;20.374;2022-11-13T21:41:37;36.63;;;20.85;;
60076;SDS011;45950;45.208;20.374;2022-11-13T21:44:04;34.50;;;20.73;;
60076;SDS011;45950;45.208;20.374;2022-11-13T21:46:34;35.08;;;21.40;;
60076;SDS011;45950;45.208;20.374;2022-11-13T21:49:02;34.58;;;20.17;;
60076;SDS011;45950;45.208;20.374;2022-11-13T21:51:29;35.28;;;20.17;;
60076;SDS011;45950;45.208;20.374;2022-11-13T21:53:56;31.05;;;19.83;;
60076;SDS011;45950;45.208;20.374;2022-11-13T21:56:23;37.00;;;23.92;;
60076;SDS011;45950;45.208;20.374;2022-11-13T21:58:49;37.70;;;22.15;;
60076;SDS011;45950;45.208;20.374;2022-11-13T22:01:16;34.65;;;22.20;;
60076;SDS011;45950;45.208;20.374;2022-11-13T22:03:44;35.58;;;21.50;;
60076;SDS011;45950;45.208;20.374;2022-11-13T22:06:14;33.83;;;22.45;;
60076;SDS011;45950;45.208;20.374;2022-11-13T22:08:42;33.33;;;21.08;;
60076;SDS011;45950;45.208;20.374;2022-11-13T22:11:09;41.17;;;23.88;;
60076;SDS011;45950;45.208;20.374;2022-11-13T22:13:36;43.05;;;25.42;;
60076;SDS011;45950;45.208;20.374;2022-11-13T22:16:03;33.72;;;21.55;;
60076;SDS011;45950;45.208;20.374;2022-11-13T22:18:30;32.33;;;19.83;;
60076;SDS011;45950;45.208;20.374;2022-11-13T22:21:02;37.42;;;22.95;;
60076;SDS011;45950;45.208;20.374;2022-11-13T22:23:29;28.63;;;19.38;;
60076;SDS011;45950;45.208;20.374;2022-11-13T22:25:59;29.90;;;17.42;;
60076;SDS011;45950;45.208;20.374;2022-11-13T22:28:26;26.55;;;16.77;;
60076;SDS011;45950;45.208;20.374;2022-11-13T22:30:53;29.48;;;18.60;;
60076;SDS011;45950;45.208;20.374;2022-11-13T22:33:19;30.40;;;19.67;;
60076;SDS011;45950;45.208;20.374;2022-11-13T22:35:46;27.92;;;18.88;;
60076;SDS011;45950;45.208;20.374;2022-11-13T22:38:14;34.88;;;21.05;;
60076;SDS011;45950;45.208;20.374;2022-11-13T22:40:41;35.08;;;20.55;;
60076;SDS011;45950;45.208;20.374;2022-11-13T22:43:07;34.03;;;19.92;;
60076;SDS011;45950;45.208;20.374;2022-11-13T22:45:34;27.52;;;18.33;;
60076;SDS011;45950;45.208;20.374;2022-11-13T22:48:00;30.52;;;18.48;;
60076;SDS011;45950;45.208;20.374;2022-11-13T22:50:27;30.15;;;18.48;;
60076;SDS011;45950;45.208;20.374;2022-11-13T22:52:54;27.48;;;17.23;;
60076;SDS011;45950;45.208;20.374;2022-11-13T22:55:22;25.92;;;16.60;;
60076;SDS011;45950;45.208;20.374;2022-11-13T22:57:48;28.20;;;17.38;;
60076;SDS011;45950;45.208;20.374;2022-11-13T23:00:15;28.50;;;18.33;;
60076;SDS011;45950;45.208;20.374;2022-11-13T23:02:44;28.83;;;17.95;;
60076;SDS011;45950;45.208;20.374;2022-11-13T23:05:10;34.22;;;20.27;;
60076;SDS011;45950;45.208;20.374;2022-11-13T23:07:37;33.88;;;20.42;;
60076;SDS011;45950;45.208;20.374;2022-11-13T23:10:04;37.03;;;23.13;;
60076;SDS011;45950;45.208;20.374;2022-11-13T23:12:32;35.60;;;21.30;;
60076;SDS011;45950;45.208;20.374;2022-11-13T23:14:59;36.78;;;21.58;;
60076;SDS011;45950;45.208;20.374;2022-11-13T23:17:26;29.38;;;18.90;;
60076;SDS011;45950;45.208;20.374;2022-11-13T23:19:52;29.17;;;18.73;;
60076;SDS011;45950;45.208;20.374;2022-11-13T23:22:19;27.83;;;17.15;;
60076;SDS011;45950;45.208;20.374;2022-11-13T23:24:45;28.83;;;18.30;;
60076;SDS011;45950;45.208;20.374;2022-11-13T23:27:12;31.65;;;18.17;;
60076;SDS011;45950;45.208;20.374;2022-11-13T23:29:40;30.83;;;19.67;;
60076;SDS011;45950;45.208;20.374;2022-11-13T23:32:07;34.05;;;22.08;;
60076;SDS011;45950;45.208;20.374;2022-11-13T23:34:33;30.23;;;21.10;;
60076;SDS011;45950;45.208;20.374;2022-11-13T23:37:00;27.30;;;18.75;;
60076;SDS011;45950;45.208;20.374;2022-11-13T23:39:26;28.63;;;18.85;;
60076;SDS011;45950;45.208;20.374;2022-11-13T23:41:53;28.08;;;18.08;;
60076;SDS011;45950;45.208;20.374;2022-11-13T23:44:20;25.60;;;17.38;;
60076;SDS011;45950;45.208;20.374;2022-11-13T23:46:48;27.70;;;16.60;;
60076;SDS011;45950;45.208;20.374;2022-11-13T23:49:14;25.08;;;15.73;;
60076;SDS011;45950;45.208;20.374;2022-11-13T23:51:41;27.48;;;17.38;;
60076;SDS011;45950;45.208;20.374;2022-11-13T23:54:07;26.27;;;17.15;;
60076;SDS011;45950;45.208;20.374;2022-11-13T23:56:34;27.30;;;18.10;;
60076;SDS011;45950;45.208;20.374;2022-11-13T23:59:01;31.50;;;18.33;;
